createdAt,value
2019-02-27T00:03:32.369Z," 6.96"
2019-02-27T00:08:28.007Z," 6.78"
2019-02-27T00:13:25.444Z," 6.82"
2019-02-27T00:18:23.777Z," 6.74"
2019-02-27T00:23:19.161Z," 6.70"
2019-02-27T00:28:14.756Z," 6.70"
2019-02-27T00:33:10.822Z," 6.77"
2019-02-27T00:38:06.640Z," 6.60"
2019-02-27T00:43:02.471Z," 6.57"
2019-02-27T00:47:58.333Z," 6.66"
2019-02-27T00:52:54.188Z," 6.44"
2019-02-27T00:57:51.804Z," 6.36"
2019-02-27T01:02:52.769Z," 6.08"
2019-02-27T01:07:47.996Z," 5.89"
2019-02-27T01:12:43.584Z," 5.83"
2019-02-27T01:17:39.080Z," 5.68"
2019-02-27T01:22:34.763Z," 5.46"
2019-02-27T01:27:31.271Z," 5.43"
2019-02-27T01:32:28.861Z," 5.36"
2019-02-27T01:37:25.496Z," 5.41"
2019-02-27T01:42:21.039Z," 5.17"
2019-02-27T01:47:16.911Z," 5.20"
2019-02-27T01:52:12.437Z," 5.10"
2019-02-27T01:57:07.990Z," 5.08"
2019-02-27T02:02:04.194Z," 5.00"
2019-02-27T02:06:59.509Z," 5.07"
2019-02-27T02:11:55.290Z," 4.99"
2019-02-27T02:16:50.938Z," 5.12"
2019-02-27T02:21:46.920Z," 4.92"
2019-02-27T02:26:42.756Z," 4.86"
2019-02-27T02:31:41.624Z," 4.93"
2019-02-27T02:36:37.134Z," 4.96"
2019-02-27T02:41:33.463Z," 5.07"
2019-02-27T02:46:29.430Z," 5.26"
2019-02-27T02:51:28.674Z," 5.21"
2019-02-27T02:56:25.135Z," 5.17"
2019-02-27T03:01:20.618Z," 5.35"
2019-02-27T03:06:16.227Z," 5.46"
2019-02-27T03:11:17.920Z," 5.35"
2019-02-27T03:16:10.605Z," 5.25"
2019-02-27T03:21:06.193Z," 5.07"
2019-02-27T03:26:02.223Z," 4.87"
2019-02-27T03:30:57.667Z," 4.73"
2019-02-27T03:35:53.274Z," 4.56"
2019-02-27T03:40:49.025Z," 4.48"
2019-02-27T03:45:44.712Z," 4.40"
2019-02-27T03:50:42.074Z," 4.49"
2019-02-27T03:55:37.490Z," 4.52"
2019-02-27T04:00:33.106Z," 4.59"
2019-02-27T04:05:28.817Z," 4.90"
2019-02-27T04:10:30.964Z," 4.93"
2019-02-27T04:15:23.687Z," 4.74"
2019-02-27T04:20:19.161Z," 4.94"
2019-02-27T04:25:14.766Z," 4.67"
2019-02-27T04:30:14.755Z," 4.50"
2019-02-27T04:35:10.024Z," 4.26"
2019-02-27T04:40:05.702Z," 4.08"
2019-02-27T04:45:02.209Z," 4.05"
2019-02-27T04:49:57.656Z," 3.94"
2019-02-27T04:54:53.298Z," 3.91"
2019-02-27T04:59:49.758Z," 3.80"
2019-02-27T05:04:46.655Z," 3.81"
2019-02-27T05:09:43.437Z," 3.73"
2019-02-27T05:14:39.301Z," 3.83"
2019-02-27T05:19:37.217Z," 3.95"
2019-02-27T05:24:33.647Z," 3.83"
2019-02-27T05:29:29.768Z," 3.68"
2019-02-27T05:34:25.206Z," 3.69"
2019-02-27T05:39:21.128Z," 3.81"
2019-02-27T05:44:21.450Z," 4.01"
2019-02-27T05:49:15.707Z," 4.17"
2019-02-27T05:54:10.936Z," 4.32"
2019-02-27T05:59:07.792Z," 4.14"
2019-02-27T06:04:03.077Z," 3.99"
2019-02-27T06:08:58.537Z," 3.92"
2019-02-27T06:13:54.088Z," 3.66"
2019-02-27T06:18:49.583Z," 3.94"
2019-02-27T06:23:45.195Z," 4.10"
2019-02-27T06:28:41.905Z," 3.84"
2019-02-27T06:33:37.229Z," 3.66"
2019-02-27T06:38:32.993Z," 3.58"
2019-02-27T06:43:29.445Z," 3.55"
2019-02-27T06:48:24.774Z," 3.58"
2019-02-27T06:53:20.299Z," 3.69"
2019-02-27T06:58:16.653Z," 3.96"
2019-02-27T07:03:13.382Z," 4.19"
2019-02-27T07:08:08.840Z," 4.32"
2019-02-27T07:13:04.759Z," 4.42"
2019-02-27T07:18:00.502Z," 4.68"
2019-02-27T07:22:56.371Z," 4.97"
2019-02-27T07:27:53.182Z," 5.10"
2019-02-27T07:32:48.861Z," 5.46"
2019-02-27T07:37:47.440Z," 5.69"
2019-02-27T07:42:43.111Z," 5.93"
2019-02-27T07:47:38.728Z," 5.99"
2019-02-27T07:52:34.626Z," 5.98"
2019-02-27T07:57:30.534Z," 6.14"
2019-02-27T08:02:26.457Z," 6.44"
2019-02-27T08:07:22.281Z," 6.64"
2019-02-27T08:12:19.988Z," 6.81"
2019-02-27T08:17:17.847Z," 6.79"
2019-02-27T08:22:13.257Z," 7.10"
2019-02-27T08:27:09.626Z," 7.14"
2019-02-27T08:32:06.633Z," 7.43"
2019-02-27T08:37:03.127Z," 7.61"
2019-02-27T08:42:03.341Z," 7.87"
2019-02-27T08:46:58.060Z," 7.97"
2019-02-27T08:51:54.510Z," 8.10"
2019-02-27T08:56:50.574Z," 8.20"
2019-02-27T09:01:46.387Z," 8.33"
2019-02-27T09:06:43.118Z," 8.66"
2019-02-27T09:11:40.042Z," 8.88"
2019-02-27T09:16:37.261Z," 9.04"
2019-02-27T09:21:32.723Z," 9.34"
2019-02-27T09:26:29.317Z," 9.47"
2019-02-27T09:31:25.491Z," 9.79"
2019-02-27T09:36:21.122Z,10.16
2019-02-27T09:41:17.638Z,10.74
2019-02-27T09:46:13.871Z,11.29
2019-02-27T09:51:09.939Z,11.84
2019-02-27T09:56:06.100Z,12.21
2019-02-27T10:01:03.177Z,12.36
2019-02-27T10:06:00.642Z,12.76
2019-02-27T10:10:56.423Z,13.19
2019-02-27T10:15:54.088Z,13.50
2019-02-27T10:20:49.688Z,13.86
2019-02-27T10:25:45.937Z,14.08
2019-02-27T10:30:41.801Z,14.58
2019-02-27T10:35:39.504Z,14.88
2019-02-27T10:40:35.865Z,14.84
2019-02-27T10:45:32.136Z,15.07
2019-02-27T10:50:29.314Z,15.58
2019-02-27T10:55:26.854Z,15.84
2019-02-27T11:00:24.889Z,16.21
2019-02-27T11:05:22.000Z,16.50
2019-02-27T11:10:18.734Z,16.56
2019-02-27T11:15:14.611Z,16.72
2019-02-27T11:20:11.526Z,17.22
2019-02-27T11:25:07.677Z,17.59
2019-02-27T11:30:03.990Z,17.52
2019-02-27T11:35:00.713Z,17.72
2019-02-27T11:39:57.068Z,18.00
2019-02-27T11:44:52.934Z,18.03
2019-02-27T11:49:48.884Z,18.25
2019-02-27T11:54:44.887Z,18.07
2019-02-27T11:59:40.461Z,18.03
2019-02-27T12:04:35.836Z,17.78
2019-02-27T12:09:34.973Z,17.67
2019-02-27T12:14:30.112Z,17.72
2019-02-27T12:19:25.996Z,17.57
2019-02-27T12:24:21.663Z,17.78
2019-02-27T12:29:18.176Z,17.98
2019-02-27T12:34:15.365Z,18.20
2019-02-27T12:39:15.287Z,18.34
2019-02-27T12:44:10.402Z,18.52
2019-02-27T12:49:07.648Z,18.70
2019-02-27T12:54:04.632Z,18.70
2019-02-27T12:58:59.988Z,18.65
2019-02-27T13:03:56.858Z,18.62
2019-02-27T13:08:52.923Z,18.43
2019-02-27T13:13:48.732Z,18.37
2019-02-27T13:18:46.486Z,18.65
2019-02-27T13:23:42.387Z,18.44
2019-02-27T13:28:37.868Z,18.31
2019-02-27T13:33:35.523Z,18.01
2019-02-27T13:38:32.600Z,18.23
2019-02-27T13:43:28.624Z,18.58
2019-02-27T13:48:25.191Z,18.78
2019-02-27T13:53:25.774Z,18.96
2019-02-27T13:58:21.498Z,19.07
2019-02-27T14:03:17.497Z,19.59
2019-02-27T14:08:13.976Z,19.82
2019-02-27T14:13:10.011Z,19.81
2019-02-27T14:18:06.788Z,19.56
2019-02-27T14:23:02.490Z,19.15
2019-02-27T14:27:57.955Z,18.95
2019-02-27T14:32:53.717Z,18.78
2019-02-27T14:37:51.038Z,18.41
2019-02-27T14:42:46.335Z,18.34
2019-02-27T14:47:41.957Z,18.33
2019-02-27T14:52:37.917Z,18.15
2019-02-27T14:57:33.487Z,18.00
2019-02-27T15:02:29.072Z,18.00
2019-02-27T15:07:25.171Z,17.97
2019-02-27T15:12:20.696Z,17.94
2019-02-27T15:17:20.287Z,17.98
2019-02-27T15:22:15.395Z,17.83
2019-02-27T15:27:10.807Z,17.74
2019-02-27T15:32:06.538Z,17.71
2019-02-27T15:37:04.243Z,17.67
2019-02-27T15:42:00.311Z,17.57
2019-02-27T15:46:56.660Z,17.60
2019-02-27T15:51:52.679Z,17.44
2019-02-27T15:56:49.342Z,17.45
2019-02-27T16:01:44.676Z,17.39
2019-02-27T16:06:41.797Z,17.38
2019-02-27T16:11:37.016Z,17.26
2019-02-27T16:16:32.918Z,17.06
2019-02-27T16:21:29.042Z,16.91
2019-02-27T16:26:27.167Z,16.89
2019-02-27T16:31:22.863Z,16.79
2019-02-27T16:36:18.504Z,16.75
2019-02-27T16:41:13.938Z,16.68
2019-02-27T16:46:10.661Z,16.51
2019-02-27T16:51:07.474Z,16.36
2019-02-27T16:56:04.082Z,16.09
2019-02-27T17:00:59.859Z,15.91
2019-02-27T17:05:55.479Z,15.83
2019-02-27T17:10:51.920Z,15.68
2019-02-27T17:15:47.466Z,15.49
2019-02-27T17:20:45.767Z,15.57
2019-02-27T17:25:41.306Z,15.35
2019-02-27T17:30:38.165Z,15.11
2019-02-27T17:35:33.644Z,14.73
2019-02-27T17:40:29.411Z,14.54
2019-02-27T17:45:24.959Z,14.51
2019-02-27T17:50:20.707Z,14.36
2019-02-27T17:55:16.478Z,14.30
2019-02-27T18:00:12.945Z,14.51
2019-02-27T18:05:11.089Z,14.81
2019-02-27T18:10:07.769Z,14.86
2019-02-27T18:15:05.088Z,14.72
2019-02-27T18:20:00.508Z,14.62
2019-02-27T18:24:56.236Z,14.35
2019-02-27T18:29:51.976Z,14.15
2019-02-27T18:34:47.863Z,13.97
2019-02-27T18:39:43.548Z,13.85
2019-02-27T18:44:41.466Z,13.89
2019-02-27T18:49:36.794Z,13.75
2019-02-27T18:54:33.361Z,13.60
2019-02-27T18:59:30.265Z,13.62
2019-02-27T19:04:25.730Z,13.81
2019-02-27T19:09:21.511Z,13.68
2019-02-27T19:14:17.261Z,13.53
2019-02-27T19:19:13.770Z,13.30
2019-02-27T19:24:10.737Z,13.12
2019-02-27T19:29:07.445Z,13.04
2019-02-27T19:34:02.900Z,13.18
2019-02-27T19:38:59.272Z,13.04
2019-02-27T19:43:55.951Z,12.90
2019-02-27T19:48:51.349Z,12.68
2019-02-27T19:53:46.985Z,12.61
2019-02-27T19:58:43.403Z,12.58
2019-02-27T20:03:40.271Z,12.31
2019-02-27T20:08:36.407Z,12.39
2019-02-27T20:13:32.756Z,12.37
2019-02-27T20:18:28.703Z,12.42
2019-02-27T20:23:26.412Z,12.18
2019-02-27T20:28:21.399Z,12.29
2019-02-27T20:33:17.035Z,12.32
2019-02-27T20:38:15.970Z,12.31
2019-02-27T20:43:15.577Z,12.31
2019-02-27T20:48:11.510Z,12.21
2019-02-27T20:53:06.948Z,12.21
2019-02-27T20:58:02.814Z,12.13
2019-02-27T21:03:02.506Z,12.10
2019-02-27T21:08:01.981Z,12.09
2019-02-27T21:12:56.653Z,12.03
2019-02-27T21:17:57.589Z,11.86
2019-02-27T21:22:52.693Z,11.77
2019-02-27T21:27:48.245Z,11.75
2019-02-27T21:32:43.804Z,11.80
2019-02-27T21:37:44.388Z,11.73
2019-02-27T21:42:39.616Z,11.62
2019-02-27T21:47:36.334Z,11.50
2019-02-27T21:52:31.475Z,11.54
2019-02-27T21:57:27.535Z,11.57
2019-02-27T22:02:23.548Z,11.51
2019-02-27T22:07:20.081Z,11.62
2019-02-27T22:12:15.674Z,11.60
2019-02-27T22:17:11.913Z,11.69
2019-02-27T22:22:08.128Z,11.78
2019-02-27T22:27:05.507Z,11.81
2019-02-27T22:32:01.037Z,11.70
2019-02-27T22:36:56.775Z,11.70
2019-02-27T22:41:52.345Z,11.60
2019-02-27T22:46:48.607Z,11.63
2019-02-27T22:51:45.276Z,11.50
2019-02-27T22:56:42.613Z,11.52
2019-02-27T23:01:38.331Z,11.35
2019-02-27T23:06:34.137Z,11.17
2019-02-27T23:11:30.055Z,11.18
2019-02-27T23:16:25.751Z,11.05
2019-02-27T23:21:21.490Z,11.00
2019-02-27T23:26:19.852Z,10.94
2019-02-27T23:31:15.540Z,10.82
2019-02-27T23:36:11.172Z,10.60
2019-02-27T23:41:07.020Z,10.72
2019-02-27T23:46:03.725Z,10.59
2019-02-27T23:50:59.205Z,10.59
2019-02-27T23:55:55.829Z,10.61
